AXY6XM ESGG-EDDH
Flight info
| Callsign | AXY6XM |
|---|---|
| Flight time | 0h 55m |
| Altitude | 30000 |
| Route | VADIN M852 EKERN T905 BOGMU |
| Aircraft | B737/M-SDE1FGHILORVWXY/HB1 |
Departure
| Time | 2026-05-07 18:28 |
|---|---|
| Airport | Göteborg Landvetter Airport (ESGG) |
Arrival
| Time | 2026-05-07 19:23 |
|---|---|
| Airport | Hamburg Helmut Schmidt Airport (EDDH) |
| Time | Latitude | Longitude | Altitude | Speed | Heading |
|---|---|---|---|---|---|
| 2026-05-07 17:46 | 57.66425 | 12.29033 | 518 ft | 0 kts | 116° |
| 2026-05-07 18:16 | 57.66430 | 12.29012 | 518 ft | 4 kts | 111° |
| 2026-05-07 18:17 | 57.66436 | 12.28965 | 518 ft | 4 kts | 90° |
| 2026-05-07 18:17 | 57.66430 | 12.28919 | 518 ft | 4 kts | 54° |
| 2026-05-07 18:17 | 57.66411 | 12.28888 | 518 ft | 4 kts | 22° |
| 2026-05-07 18:17 | 57.66394 | 12.28879 | 518 ft | 4 kts | 11° |
| 2026-05-07 18:18 | 57.66367 | 12.28873 | 518 ft | 4 kts | 1° |
| 2026-05-07 18:18 | 57.66340 | 12.28874 | 518 ft | 4 kts | 357° |
| 2026-05-07 18:18 | 57.66313 | 12.28875 | 518 ft | 4 kts | 1° |
| 2026-05-07 18:18 | 57.66287 | 12.28863 | 518 ft | 4 kts | 75° |
| 2026-05-07 18:19 | 57.66288 | 12.28851 | 518 ft | 4 kts | 121° |
| 2026-05-07 18:19 | 57.66306 | 12.28816 | 518 ft | 4 kts | 152° |
| 2026-05-07 18:19 | 57.66330 | 12.28805 | 518 ft | 4 kts | 182° |
| 2026-05-07 18:19 | 57.66365 | 12.28820 | 518 ft | 4 kts | 204° |
| 2026-05-07 18:20 | 57.66381 | 12.28836 | 518 ft | 4 kts | 211° |
| 2026-05-07 18:20 | 57.66402 | 12.28865 | 518 ft | 4 kts | 226° |
| 2026-05-07 18:20 | 57.66413 | 12.28900 | 518 ft | 4 kts | 281° |
| 2026-05-07 18:20 | 57.66424 | 12.28906 | 518 ft | 4 kts | 14° |
| 2026-05-07 18:21 | 57.66428 | 12.28910 | 518 ft | 2 kts | 26° |
| 2026-05-07 18:24 | 57.66441 | 12.28922 | 518 ft | 4 kts | 26° |
| 2026-05-07 18:24 | 57.66482 | 12.28959 | 518 ft | 8 kts | 22° |
| 2026-05-07 18:24 | 57.66546 | 12.28952 | 518 ft | 11 kts | 2° |
| 2026-05-07 18:24 | 57.66622 | 12.29010 | 518 ft | 13 kts | 27° |
| 2026-05-07 18:25 | 57.66711 | 12.29094 | 518 ft | 13 kts | 26° |
| 2026-05-07 18:25 | 57.66775 | 12.29104 | 518 ft | 7 kts | 308° |
| 2026-05-07 18:25 | 57.66799 | 12.29009 | 518 ft | 10 kts | 295° |
| 2026-05-07 18:25 | 57.66826 | 12.28874 | 516 ft | 14 kts | 269° |
| 2026-05-07 18:26 | 57.66780 | 12.28748 | 515 ft | 11 kts | 230° |
| 2026-05-07 18:26 | 57.66773 | 12.28732 | 515 ft | 0 kts | 230° |
| 2026-05-07 18:26 | 57.66771 | 12.28727 | 515 ft | 2 kts | 232° |
| 2026-05-07 18:26 | 57.66742 | 12.28645 | 515 ft | 13 kts | 237° |
| 2026-05-07 18:27 | 57.66678 | 12.28469 | 514 ft | 18 kts | 235° |
| 2026-05-07 18:27 | 57.66610 | 12.28292 | 514 ft | 13 kts | 226° |
| 2026-05-07 18:27 | 57.66553 | 12.28226 | 514 ft | 9 kts | 207° |
| 2026-05-07 18:27 | 57.66451 | 12.28133 | 513 ft | 38 kts | 208° |
| 2026-05-07 18:28 | 57.65988 | 12.27712 | 509 ft | 109 kts | 206° |
| 2026-05-07 18:28 | 57.65133 | 12.26892 | 494 ft | 164 kts | 204° |
| 2026-05-07 18:28 | 57.64094 | 12.25927 | 1141 ft | 164 kts | 210° |
| 2026-05-07 18:28 | 57.63074 | 12.24937 | 1854 ft | 172 kts | 208° |
| 2026-05-07 18:29 | 57.61933 | 12.23955 | 2461 ft | 185 kts | 205° |
| 2026-05-07 18:29 | 57.60733 | 12.22897 | 3127 ft | 200 kts | 205° |
| 2026-05-07 18:29 | 57.59376 | 12.22178 | 3871 ft | 211 kts | 182° |
| 2026-05-07 18:29 | 57.57854 | 12.22274 | 4549 ft | 224 kts | 174° |
| 2026-05-07 18:30 | 57.56290 | 12.22444 | 5393 ft | 232 kts | 177° |
| 2026-05-07 18:30 | 57.54614 | 12.22321 | 6027 ft | 251 kts | 185° |
| 2026-05-07 18:30 | 57.52815 | 12.21958 | 6649 ft | 267 kts | 185° |
| 2026-05-07 18:30 | 57.50966 | 12.21585 | 7624 ft | 268 kts | 186° |
| 2026-05-07 18:31 | 57.49087 | 12.21210 | 8467 ft | 275 kts | 187° |
| 2026-05-07 18:31 | 57.47168 | 12.20830 | 9345 ft | 280 kts | 187° |
| 2026-05-07 18:31 | 57.45216 | 12.20430 | 10205 ft | 284 kts | 190° |
| 2026-05-07 18:31 | 57.43335 | 12.19154 | 10715 ft | 298 kts | 215° |
| 2026-05-07 18:32 | 57.41766 | 12.16503 | 11115 ft | 315 kts | 227° |
| 2026-05-07 18:32 | 57.40188 | 12.13547 | 11685 ft | 328 kts | 226° |
| 2026-05-07 18:32 | 57.38595 | 12.10568 | 12531 ft | 331 kts | 226° |
| 2026-05-07 18:32 | 57.36971 | 12.07522 | 13385 ft | 336 kts | 226° |
| 2026-05-07 18:33 | 57.35319 | 12.04426 | 14210 ft | 340 kts | 226° |
| 2026-05-07 18:33 | 57.33646 | 12.01293 | 14983 ft | 345 kts | 226° |
| 2026-05-07 18:33 | 57.31943 | 11.98107 | 15316 ft | 349 kts | 226° |
| 2026-05-07 18:33 | 57.30235 | 11.94915 | 16105 ft | 349 kts | 226° |
| 2026-05-07 18:34 | 57.28514 | 11.91704 | 16918 ft | 353 kts | 226° |
| 2026-05-07 18:34 | 57.26773 | 11.88459 | 17699 ft | 357 kts | 226° |
| 2026-05-07 18:34 | 57.25034 | 11.85224 | 18456 ft | 362 kts | 226° |
| 2026-05-07 18:34 | 57.23251 | 11.81910 | 19103 ft | 366 kts | 226° |
| 2026-05-07 18:35 | 57.21448 | 11.78565 | 19766 ft | 369 kts | 226° |
| 2026-05-07 18:35 | 57.19626 | 11.75188 | 20392 ft | 373 kts | 226° |
| 2026-05-07 18:35 | 57.17784 | 11.71780 | 21032 ft | 377 kts | 226° |
| 2026-05-07 18:35 | 57.15921 | 11.68339 | 21647 ft | 381 kts | 227° |
| 2026-05-07 18:36 | 57.13952 | 11.65031 | 22250 ft | 387 kts | 216° |
| 2026-05-07 18:36 | 57.11546 | 11.62766 | 22867 ft | 393 kts | 205° |
| 2026-05-07 18:36 | 57.09029 | 11.60723 | 23418 ft | 398 kts | 205° |
| 2026-05-07 18:36 | 57.06474 | 11.58675 | 23960 ft | 402 kts | 205° |
| 2026-05-07 18:37 | 57.03902 | 11.56642 | 24463 ft | 405 kts | 205° |
| 2026-05-07 18:37 | 57.01303 | 11.54603 | 24959 ft | 408 kts | 205° |
| 2026-05-07 18:37 | 56.98719 | 11.52582 | 25447 ft | 411 kts | 205° |
| 2026-05-07 18:37 | 56.96081 | 11.50523 | 25928 ft | 414 kts | 205° |
| 2026-05-07 18:38 | 56.93422 | 11.48453 | 26406 ft | 417 kts | 205° |
| 2026-05-07 18:38 | 56.90746 | 11.46372 | 26881 ft | 419 kts | 205° |
| 2026-05-07 18:38 | 56.88051 | 11.44279 | 27339 ft | 422 kts | 205° |
| 2026-05-07 18:38 | 56.85337 | 11.42175 | 27791 ft | 425 kts | 205° |
| 2026-05-07 18:39 | 56.82604 | 11.40060 | 28231 ft | 428 kts | 204° |
| 2026-05-07 18:39 | 56.79852 | 11.37934 | 28667 ft | 431 kts | 204° |
| 2026-05-07 18:39 | 56.77082 | 11.35797 | 29095 ft | 434 kts | 204° |
| 2026-05-07 18:39 | 56.74330 | 11.33677 | 29511 ft | 437 kts | 204° |
| 2026-05-07 18:40 | 56.71522 | 11.31518 | 29914 ft | 439 kts | 204° |
| 2026-05-07 18:40 | 56.68689 | 11.29343 | 30154 ft | 445 kts | 204° |
| 2026-05-07 18:40 | 56.65837 | 11.27157 | 30155 ft | 446 kts | 204° |
| 2026-05-07 18:41 | 56.60127 | 11.22791 | 30139 ft | 445 kts | 204° |
| 2026-05-07 18:41 | 56.54410 | 11.18434 | 30145 ft | 445 kts | 204° |
| 2026-05-07 18:42 | 56.48702 | 11.14099 | 30135 ft | 445 kts | 204° |
| 2026-05-07 18:42 | 56.42981 | 11.09768 | 30148 ft | 446 kts | 204° |
| 2026-05-07 18:43 | 56.37305 | 11.05484 | 30150 ft | 446 kts | 203° |
| 2026-05-07 18:43 | 56.31581 | 11.01177 | 30142 ft | 446 kts | 203° |
| 2026-05-07 18:44 | 56.25853 | 10.96882 | 30148 ft | 446 kts | 203° |
| 2026-05-07 18:44 | 56.20120 | 10.92598 | 30148 ft | 446 kts | 203° |
| 2026-05-07 18:45 | 56.14380 | 10.88321 | 30143 ft | 447 kts | 203° |
| 2026-05-07 18:45 | 56.08669 | 10.84081 | 30142 ft | 447 kts | 203° |
| 2026-05-07 18:46 | 56.02914 | 10.79824 | 30146 ft | 448 kts | 202° |
| 2026-05-07 18:46 | 55.97153 | 10.75575 | 30140 ft | 448 kts | 202° |
| 2026-05-07 18:47 | 55.91398 | 10.71343 | 30108 ft | 443 kts | 202° |
| 2026-05-07 18:47 | 55.88587 | 10.69282 | 29841 ft | 431 kts | 202° |
| 2026-05-07 18:47 | 55.85846 | 10.67274 | 29570 ft | 421 kts | 202° |
| 2026-05-07 18:47 | 55.83168 | 10.65316 | 29289 ft | 411 kts | 202° |
| 2026-05-07 18:48 | 55.80531 | 10.63391 | 29129 ft | 420 kts | 202° |
| 2026-05-07 18:48 | 55.74999 | 10.59361 | 29123 ft | 437 kts | 202° |
| 2026-05-07 18:49 | 55.69365 | 10.55270 | 29133 ft | 438 kts | 202° |
| 2026-05-07 18:49 | 55.63719 | 10.51183 | 29134 ft | 438 kts | 202° |
| 2026-05-07 18:50 | 55.58067 | 10.47104 | 29130 ft | 438 kts | 202° |
| 2026-05-07 18:50 | 55.52461 | 10.43071 | 29131 ft | 438 kts | 202° |
| 2026-05-07 18:51 | 55.46812 | 10.39020 | 29129 ft | 438 kts | 202° |
| 2026-05-07 18:51 | 55.41164 | 10.34982 | 29127 ft | 439 kts | 202° |
| 2026-05-07 18:52 | 55.35453 | 10.30911 | 29129 ft | 445 kts | 202° |
| 2026-05-07 18:52 | 55.29715 | 10.26834 | 29133 ft | 445 kts | 202° |
| 2026-05-07 18:53 | 55.24011 | 10.22795 | 29135 ft | 445 kts | 202° |
| 2026-05-07 18:53 | 55.18277 | 10.18745 | 29142 ft | 445 kts | 202° |
| 2026-05-07 18:54 | 55.12535 | 10.14704 | 29138 ft | 445 kts | 201° |
| 2026-05-07 18:54 | 55.06791 | 10.10673 | 29134 ft | 445 kts | 201° |
| 2026-05-07 18:55 | 55.01044 | 10.06652 | 29133 ft | 445 kts | 201° |
| 2026-05-07 18:55 | 54.95290 | 10.02637 | 29123 ft | 445 kts | 201° |
| 2026-05-07 18:55 | 54.92418 | 10.00637 | 28869 ft | 443 kts | 201° |
| 2026-05-07 18:56 | 54.89543 | 9.98975 | 28576 ft | 440 kts | 191° |
| 2026-05-07 18:56 | 54.86495 | 9.98025 | 28308 ft | 439 kts | 190° |
| 2026-05-07 18:56 | 54.83545 | 9.97049 | 27940 ft | 434 kts | 190° |
| 2026-05-07 18:56 | 54.80577 | 9.96074 | 27110 ft | 434 kts | 190° |
| 2026-05-07 18:57 | 54.77609 | 9.95102 | 26396 ft | 432 kts | 190° |
| 2026-05-07 18:57 | 54.74688 | 9.94147 | 25888 ft | 425 kts | 190° |
| 2026-05-07 18:57 | 54.71798 | 9.93205 | 25341 ft | 419 kts | 190° |
| 2026-05-07 18:57 | 54.68954 | 9.92278 | 24793 ft | 415 kts | 191° |
| 2026-05-07 18:58 | 54.66132 | 9.91361 | 24241 ft | 411 kts | 191° |
| 2026-05-07 18:58 | 54.63326 | 9.90460 | 23573 ft | 410 kts | 191° |
| 2026-05-07 18:58 | 54.60530 | 9.89564 | 22956 ft | 407 kts | 191° |
| 2026-05-07 18:58 | 54.57756 | 9.88677 | 22427 ft | 403 kts | 191° |
| 2026-05-07 18:59 | 54.55008 | 9.87798 | 21921 ft | 400 kts | 191° |
| 2026-05-07 18:59 | 54.52302 | 9.87123 | 21336 ft | 399 kts | 181° |
| 2026-05-07 18:59 | 54.49565 | 9.87752 | 20791 ft | 397 kts | 163° |
| 2026-05-07 18:59 | 54.47021 | 9.89520 | 20361 ft | 392 kts | 156° |
| 2026-05-07 19:00 | 54.44540 | 9.91436 | 19880 ft | 390 kts | 156° |
| 2026-05-07 19:00 | 54.42084 | 9.93376 | 19398 ft | 387 kts | 155° |
| 2026-05-07 19:00 | 54.39649 | 9.95328 | 18922 ft | 385 kts | 155° |
| 2026-05-07 19:00 | 54.37230 | 9.97280 | 18478 ft | 383 kts | 155° |
| 2026-05-07 19:01 | 54.34827 | 9.99227 | 17958 ft | 381 kts | 155° |
| 2026-05-07 19:01 | 54.32442 | 10.01159 | 17453 ft | 377 kts | 155° |
| 2026-05-07 19:01 | 54.30079 | 10.03072 | 17018 ft | 374 kts | 155° |
| 2026-05-07 19:01 | 54.27745 | 10.04960 | 16576 ft | 370 kts | 155° |
| 2026-05-07 19:02 | 54.25422 | 10.06837 | 16139 ft | 367 kts | 155° |
| 2026-05-07 19:02 | 54.23130 | 10.08686 | 15715 ft | 364 kts | 155° |
| 2026-05-07 19:02 | 54.20851 | 10.10523 | 15270 ft | 361 kts | 155° |
| 2026-05-07 19:02 | 54.18590 | 10.12343 | 14854 ft | 358 kts | 155° |
| 2026-05-07 19:03 | 54.16375 | 10.14123 | 14444 ft | 355 kts | 155° |
| 2026-05-07 19:03 | 54.14146 | 10.15913 | 14025 ft | 353 kts | 155° |
| 2026-05-07 19:03 | 54.11930 | 10.17690 | 13557 ft | 350 kts | 155° |
| 2026-05-07 19:03 | 54.09732 | 10.19451 | 13114 ft | 347 kts | 155° |
| 2026-05-07 19:04 | 54.07560 | 10.21189 | 12704 ft | 344 kts | 155° |
| 2026-05-07 19:04 | 54.05399 | 10.22916 | 12294 ft | 341 kts | 155° |
| 2026-05-07 19:04 | 54.03268 | 10.24617 | 11887 ft | 338 kts | 155° |
| 2026-05-07 19:04 | 54.01150 | 10.26306 | 11489 ft | 335 kts | 155° |
| 2026-05-07 19:05 | 53.99052 | 10.27978 | 11173 ft | 330 kts | 155° |
| 2026-05-07 19:05 | 53.96940 | 10.29219 | 11043 ft | 314 kts | 169° |
| 2026-05-07 19:05 | 53.94856 | 10.29895 | 10960 ft | 296 kts | 169° |
| 2026-05-07 19:05 | 53.92889 | 10.30549 | 10887 ft | 280 kts | 168° |
| 2026-05-07 19:06 | 53.91048 | 10.31160 | 10783 ft | 266 kts | 168° |
| 2026-05-07 19:06 | 53.87514 | 10.32330 | 10434 ft | 256 kts | 168° |
| 2026-05-07 19:06 | 53.85765 | 10.32909 | 9995 ft | 255 kts | 168° |
| 2026-05-07 19:07 | 53.84023 | 10.33485 | 9502 ft | 254 kts | 168° |
| 2026-05-07 19:07 | 53.82295 | 10.34057 | 9041 ft | 252 kts | 168° |
| 2026-05-07 19:07 | 53.80579 | 10.34623 | 8598 ft | 250 kts | 168° |
| 2026-05-07 19:07 | 53.78881 | 10.35182 | 8148 ft | 248 kts | 167° |
| 2026-05-07 19:08 | 53.77197 | 10.35737 | 7704 ft | 246 kts | 167° |
| 2026-05-07 19:08 | 53.75546 | 10.36280 | 7276 ft | 244 kts | 167° |
| 2026-05-07 19:08 | 53.73890 | 10.36824 | 6853 ft | 242 kts | 167° |
| 2026-05-07 19:08 | 53.72217 | 10.37049 | 6420 ft | 243 kts | 189° |
| 2026-05-07 19:09 | 53.70690 | 10.35895 | 6103 ft | 244 kts | 218° |
| 2026-05-07 19:09 | 53.69521 | 10.33821 | 5802 ft | 245 kts | 229° |
| 2026-05-07 19:09 | 53.68421 | 10.31640 | 5529 ft | 243 kts | 229° |
| 2026-05-07 19:09 | 53.67334 | 10.29465 | 5258 ft | 242 kts | 229° |
| 2026-05-07 19:10 | 53.66258 | 10.27295 | 5036 ft | 239 kts | 229° |
| 2026-05-07 19:10 | 53.65192 | 10.25136 | 4987 ft | 240 kts | 229° |
| 2026-05-07 19:10 | 53.64124 | 10.22965 | 4997 ft | 241 kts | 229° |
| 2026-05-07 19:10 | 53.63053 | 10.20788 | 5001 ft | 241 kts | 229° |
| 2026-05-07 19:11 | 53.61982 | 10.18610 | 4996 ft | 241 kts | 229° |
| 2026-05-07 19:11 | 53.60925 | 10.16462 | 4999 ft | 241 kts | 229° |
| 2026-05-07 19:11 | 53.59854 | 10.14286 | 4993 ft | 241 kts | 229° |
| 2026-05-07 19:11 | 53.58782 | 10.12109 | 4982 ft | 241 kts | 229° |
| 2026-05-07 19:12 | 53.57711 | 10.09936 | 4994 ft | 241 kts | 229° |
| 2026-05-07 19:12 | 53.56643 | 10.07771 | 5000 ft | 241 kts | 229° |
| 2026-05-07 19:12 | 53.55574 | 10.05605 | 4991 ft | 240 kts | 229° |
| 2026-05-07 19:12 | 53.54503 | 10.03437 | 4994 ft | 241 kts | 229° |
| 2026-05-07 19:13 | 53.53434 | 10.01276 | 4991 ft | 241 kts | 229° |
| 2026-05-07 19:13 | 53.52362 | 9.99112 | 4989 ft | 241 kts | 229° |
| 2026-05-07 19:13 | 53.51291 | 9.96949 | 4994 ft | 241 kts | 229° |
| 2026-05-07 19:13 | 53.50218 | 9.94785 | 4996 ft | 241 kts | 229° |
| 2026-05-07 19:14 | 53.49160 | 9.92653 | 4989 ft | 241 kts | 229° |
| 2026-05-07 19:14 | 53.48088 | 9.90493 | 4991 ft | 241 kts | 229° |
| 2026-05-07 19:14 | 53.47018 | 9.88341 | 5002 ft | 241 kts | 229° |
| 2026-05-07 19:14 | 53.45943 | 9.86181 | 4990 ft | 240 kts | 229° |
| 2026-05-07 19:15 | 53.44876 | 9.84037 | 4964 ft | 238 kts | 229° |
| 2026-05-07 19:15 | 53.43807 | 9.81894 | 4655 ft | 240 kts | 228° |
| 2026-05-07 19:15 | 53.42741 | 9.79757 | 4401 ft | 238 kts | 229° |
| 2026-05-07 19:15 | 53.41685 | 9.77638 | 4192 ft | 234 kts | 229° |
| 2026-05-07 19:16 | 53.40665 | 9.75594 | 4130 ft | 223 kts | 230° |
| 2026-05-07 19:16 | 53.40026 | 9.73338 | 4004 ft | 217 kts | 261° |
| 2026-05-07 19:16 | 53.40207 | 9.70861 | 3688 ft | 217 kts | 296° |
| 2026-05-07 19:16 | 53.41137 | 9.68923 | 3388 ft | 214 kts | 323° |
| 2026-05-07 19:17 | 53.42473 | 9.67997 | 3088 ft | 207 kts | 359° |
| 2026-05-07 19:17 | 53.43853 | 9.68415 | 3005 ft | 202 kts | 22° |
| 2026-05-07 19:17 | 53.45175 | 9.69258 | 3002 ft | 204 kts | 24° |
| 2026-05-07 19:17 | 53.46498 | 9.70126 | 2996 ft | 204 kts | 24° |
| 2026-05-07 19:18 | 53.47820 | 9.70996 | 3000 ft | 204 kts | 24° |
| 2026-05-07 19:18 | 53.49142 | 9.71869 | 2994 ft | 204 kts | 26° |
| 2026-05-07 19:18 | 53.50295 | 9.73143 | 2990 ft | 191 kts | 46° |
| 2026-05-07 19:18 | 53.51148 | 9.74735 | 2983 ft | 177 kts | 53° |
| 2026-05-07 19:19 | 53.51894 | 9.76302 | 3003 ft | 173 kts | 53° |
| 2026-05-07 19:19 | 53.52660 | 9.77872 | 2916 ft | 174 kts | 53° |
| 2026-05-07 19:19 | 53.53433 | 9.79437 | 2698 ft | 174 kts | 52° |
| 2026-05-07 19:19 | 53.54200 | 9.80985 | 2470 ft | 171 kts | 52° |
| 2026-05-07 19:20 | 53.54961 | 9.82518 | 2243 ft | 170 kts | 52° |
| 2026-05-07 19:20 | 53.55713 | 9.84036 | 2018 ft | 168 kts | 53° |
| 2026-05-07 19:20 | 53.56457 | 9.85537 | 1802 ft | 164 kts | 53° |
| 2026-05-07 19:20 | 53.57142 | 9.86919 | 1614 ft | 144 kts | 53° |
| 2026-05-07 19:21 | 53.57757 | 9.88159 | 1409 ft | 134 kts | 53° |
| 2026-05-07 19:21 | 53.58347 | 9.89351 | 1215 ft | 131 kts | 53° |
| 2026-05-07 19:21 | 53.58931 | 9.90530 | 1029 ft | 131 kts | 52° |
| 2026-05-07 19:21 | 53.59512 | 9.91704 | 856 ft | 130 kts | 51° |
| 2026-05-07 19:22 | 53.60094 | 9.92882 | 673 ft | 131 kts | 50° |
| 2026-05-07 19:22 | 53.60670 | 9.94041 | 475 ft | 131 kts | 50° |
| 2026-05-07 19:22 | 53.61246 | 9.95211 | 308 ft | 128 kts | 50° |
| 2026-05-07 19:22 | 53.61817 | 9.96360 | 134 ft | 127 kts | 50° |
| 2026-05-07 19:23 | 53.62364 | 9.97465 | 42 ft | 107 kts | 50° |
| 2026-05-07 19:23 | 53.62718 | 9.98180 | 45 ft | 66 kts | 50° |
| 2026-05-07 19:23 | 53.63006 | 9.98761 | 48 ft | 64 kts | 50° |
| 2026-05-07 19:23 | 53.63277 | 9.99311 | 49 ft | 46 kts | 50° |
| 2026-05-07 19:24 | 53.63394 | 9.99547 | 49 ft | 25 kts | 50° |
| 2026-05-07 19:24 | 53.63508 | 9.99777 | 49 ft | 23 kts | 50° |
| 2026-05-07 19:24 | 53.63571 | 9.99929 | 54 ft | 12 kts | 83° |
| 2026-05-07 19:24 | 53.63533 | 10.00035 | 53 ft | 8 kts | 137° |
| 2026-05-07 19:25 | 53.63515 | 10.00061 | 52 ft | 3 kts | 139° |
| 2026-05-07 19:25 | 53.63514 | 10.00062 | 52 ft | 0 kts | 139° |
| 2026-05-07 19:26 | 53.63504 | 10.00077 | 51 ft | 5 kts | 139° |
| 2026-05-07 19:26 | 53.63462 | 10.00138 | 51 ft | 9 kts | 139° |
| 2026-05-07 19:27 | 53.63425 | 10.00205 | 51 ft | 8 kts | 144° |
| 2026-05-07 19:27 | 53.63364 | 10.00229 | 51 ft | 11 kts | 175° |
| 2026-05-07 19:27 | 53.63277 | 10.00239 | 48 ft | 14 kts | 176° |
| 2026-05-07 19:27 | 53.63192 | 10.00249 | 51 ft | 10 kts | 176° |
| 2026-05-07 19:28 | 53.63115 | 10.00258 | 51 ft | 8 kts | 175° |
| 2026-05-07 19:28 | 53.63085 | 10.00281 | 50 ft | 5 kts | 128° |
| 2026-05-07 19:28 | 53.63075 | 10.00349 | 51 ft | 4 kts | 95° |
| 2026-05-07 19:28 | 53.63074 | 10.00377 | 51 ft | 1 kts | 95° |
| 2026-05-07 19:29 | 53.63074 | 10.00379 | 51 ft | 0 kts | 95° |